sensor_id;sensor_type;location;lat;lon;timestamp;pressure;altitude;pressure_sealevel;temperature;humidity
48964;BME280;34776;48.180;16.420;2023-04-29T00:00:00;99526.59;;;14.25;77.71
48964;BME280;34776;48.180;16.420;2023-04-29T00:02:26;99530.97;;;14.26;77.74
48964;BME280;34776;48.180;16.420;2023-04-29T00:04:52;99528.19;;;14.28;77.74
48964;BME280;34776;48.180;16.420;2023-04-29T00:07:18;99514.94;;;14.26;77.62
48964;BME280;34776;48.180;16.420;2023-04-29T00:09:44;99520.94;;;14.17;78.47
48964;BME280;34776;48.180;16.420;2023-04-29T00:12:09;99518.81;;;14.09;78.89
48964;BME280;34776;48.180;16.420;2023-04-29T00:14:35;99521.50;;;13.96;79.55
48964;BME280;34776;48.180;16.420;2023-04-29T00:17:00;99514.34;;;13.84;80.39
48964;BME280;34776;48.180;16.420;2023-04-29T00:19:26;99520.22;;;13.76;80.99
48964;BME280;34776;48.180;16.420;2023-04-29T00:21:51;99520.53;;;13.72;81.26
48964;BME280;34776;48.180;16.420;2023-04-29T00:24:18;99517.88;;;13.72;81.80
48964;BME280;34776;48.180;16.420;2023-04-29T00:26:44;99523.09;;;13.73;82.23
48964;BME280;34776;48.180;16.420;2023-04-29T00:29:09;99527.38;;;13.76;82.21
48964;BME280;34776;48.180;16.420;2023-04-29T00:31:34;99528.22;;;13.76;82.86
48964;BME280;34776;48.180;16.420;2023-04-29T00:34:01;99526.72;;;13.72;83.54
48964;BME280;34776;48.180;16.420;2023-04-29T00:36:27;99520.31;;;13.62;84.92
48964;BME280;34776;48.180;16.420;2023-04-29T00:38:52;99517.19;;;13.55;86.83
48964;BME280;34776;48.180;16.420;2023-04-29T00:41:17;99515.38;;;13.43;88.19
48964;BME280;34776;48.180;16.420;2023-04-29T00:43:43;99520.94;;;13.40;89.41
48964;BME280;34776;48.180;16.420;2023-04-29T00:46:09;99522.09;;;13.36;90.36
48964;BME280;34776;48.180;16.420;2023-04-29T00:48:34;99514.41;;;13.31;90.84
48964;BME280;34776;48.180;16.420;2023-04-29T00:51:00;99523.63;;;13.26;91.52
48964;BME280;34776;48.180;16.420;2023-04-29T00:53:26;99511.22;;;13.25;92.46
48964;BME280;34776;48.180;16.420;2023-04-29T00:55:51;99512.88;;;13.27;93.00
48964;BME280;34776;48.180;16.420;2023-04-29T00:58:17;99512.97;;;13.26;93.56
48964;BME280;34776;48.180;16.420;2023-04-29T01:00:43;99507.28;;;13.17;94.04
48964;BME280;34776;48.180;16.420;2023-04-29T01:03:11;99508.22;;;13.16;94.76
48964;BME280;34776;48.180;16.420;2023-04-29T01:05:37;99507.47;;;13.14;95.27
48964;BME280;34776;48.180;16.420;2023-04-29T01:10:45;99505.34;;;13.07;96.01
48964;BME280;34776;48.180;16.420;2023-04-29T01:13:30;99519.06;;;13.00;96.40
48964;BME280;34776;48.180;16.420;2023-04-29T01:16:07;99515.84;;;12.95;96.51
48964;BME280;34776;48.180;16.420;2023-04-29T01:18:41;99512.72;;;12.89;96.91
48964;BME280;34776;48.180;16.420;2023-04-29T01:21:10;99507.97;;;12.94;97.45
48964;BME280;34776;48.180;16.420;2023-04-29T01:23:35;99515.97;;;12.94;97.54
48964;BME280;34776;48.180;16.420;2023-04-29T01:26:01;99509.88;;;12.92;97.62
48964;BME280;34776;48.180;16.420;2023-04-29T01:31:17;99512.53;;;12.92;98.03
48964;BME280;34776;48.180;16.420;2023-04-29T01:36:35;99514.28;;;12.78;99.06
48964;BME280;34776;48.180;16.420;2023-04-29T01:39:15;99522.69;;;12.72;99.72
48964;BME280;34776;48.180;16.420;2023-04-29T01:41:52;99513.19;;;12.68;100.00
48964;BME280;34776;48.180;16.420;2023-04-29T01:44:23;99512.22;;;12.69;100.00
48964;BME280;34776;48.180;16.420;2023-04-29T01:46:51;99516.81;;;12.67;100.00
48964;BME280;34776;48.180;16.420;2023-04-29T01:49:23;99512.44;;;12.66;100.00
48964;BME280;34776;48.180;16.420;2023-04-29T01:51:49;99515.75;;;12.70;100.00
48964;BME280;34776;48.180;16.420;2023-04-29T01:54:15;99524.50;;;12.72;100.00
48964;BME280;34776;48.180;16.420;2023-04-29T01:56:40;99518.31;;;12.71;100.00
48964;BME280;34776;48.180;16.420;2023-04-29T01:59:05;99520.00;;;12.72;100.00
48964;BME280;34776;48.180;16.420;2023-04-29T02:01:32;99518.09;;;12.74;100.00
48964;BME280;34776;48.180;16.420;2023-04-29T02:03:58;99516.41;;;12.73;100.00
48964;BME280;34776;48.180;16.420;2023-04-29T02:06:24;99519.81;;;12.75;100.00
48964;BME280;34776;48.180;16.420;2023-04-29T02:08:49;99519.81;;;12.75;100.00
48964;BME280;34776;48.180;16.420;2023-04-29T02:11:14;99518.00;;;12.76;100.00
48964;BME280;34776;48.180;16.420;2023-04-29T02:13:40;99521.53;;;12.76;100.00
48964;BME280;34776;48.180;16.420;2023-04-29T02:16:10;99519.06;;;12.73;100.00
48964;BME280;34776;48.180;16.420;2023-04-29T02:18:36;99518.41;;;12.70;100.00
48964;BME280;34776;48.180;16.420;2023-04-29T02:21:01;99515.94;;;12.67;100.00
48964;BME280;34776;48.180;16.420;2023-04-29T02:23:27;99519.09;;;12.59;100.00
48964;BME280;34776;48.180;16.420;2023-04-29T02:25:52;99511.94;;;12.59;100.00
48964;BME280;34776;48.180;16.420;2023-04-29T02:28:18;99516.25;;;12.62;100.00
48964;BME280;34776;48.180;16.420;2023-04-29T02:30:43;99517.00;;;12.64;100.00
48964;BME280;34776;48.180;16.420;2023-04-29T02:33:08;99515.94;;;12.67;100.00
48964;BME280;34776;48.180;16.420;2023-04-29T02:35:34;99509.56;;;12.69;100.00
48964;BME280;34776;48.180;16.420;2023-04-29T02:38:00;99510.41;;;12.70;100.00
48964;BME280;34776;48.180;16.420;2023-04-29T02:40:25;99507.66;;;12.71;100.00
48964;BME280;34776;48.180;16.420;2023-04-29T02:42:51;99511.16;;;12.72;100.00
48964;BME280;34776;48.180;16.420;2023-04-29T02:45:16;99514.69;;;12.72;100.00
48964;BME280;34776;48.180;16.420;2023-04-29T02:47:42;99505.06;;;12.70;100.00
48964;BME280;34776;48.180;16.420;2023-04-29T02:50:08;99512.22;;;12.69;100.00
48964;BME280;34776;48.180;16.420;2023-04-29T02:52:33;99510.72;;;12.65;100.00
48964;BME280;34776;48.180;16.420;2023-04-29T02:54:58;99512.44;;;12.66;100.00
48964;BME280;34776;48.180;16.420;2023-04-29T02:57:24;99512.31;;;12.68;100.00
48964;BME280;34776;48.180;16.420;2023-04-29T02:59:49;99509.00;;;12.64;100.00
48964;BME280;34776;48.180;16.420;2023-04-29T03:02:15;99495.13;;;12.59;100.00
48964;BME280;34776;48.180;16.420;2023-04-29T03:04:41;99493.41;;;12.58;100.00
48964;BME280;34776;48.180;16.420;2023-04-29T03:07:06;99483.69;;;12.57;100.00
48964;BME280;34776;48.180;16.420;2023-04-29T03:09:32;99498.38;;;12.50;100.00
48964;BME280;34776;48.180;16.420;2023-04-29T03:11:57;99495.16;;;12.45;100.00
48964;BME280;34776;48.180;16.420;2023-04-29T03:14:23;99498.88;;;12.42;100.00
48964;BME280;34776;48.180;16.420;2023-04-29T03:16:48;99493.53;;;12.42;100.00
48964;BME280;34776;48.180;16.420;2023-04-29T03:19:13;99507.72;;;12.43;100.00
48964;BME280;34776;48.180;16.420;2023-04-29T03:21:39;99514.75;;;12.44;100.00
48964;BME280;34776;48.180;16.420;2023-04-29T03:24:04;99514.75;;;12.44;100.00
48964;BME280;34776;48.180;16.420;2023-04-29T03:26:30;99517.13;;;12.48;100.00
48964;BME280;34776;48.180;16.420;2023-04-29T03:28:56;99520.34;;;12.53;100.00
48964;BME280;34776;48.180;16.420;2023-04-29T03:31:22;99515.53;;;12.46;100.00
48964;BME280;34776;48.180;16.420;2023-04-29T03:33:48;99505.81;;;12.45;100.00
48964;BME280;34776;48.180;16.420;2023-04-29T03:36:15;99510.94;;;12.48;100.00
48964;BME280;34776;48.180;16.420;2023-04-29T03:38:40;99508.28;;;12.48;100.00
48964;BME280;34776;48.180;16.420;2023-04-29T03:41:05;99507.13;;;12.52;100.00
48964;BME280;34776;48.180;16.420;2023-04-29T03:43:31;99512.47;;;12.52;100.00
48964;BME280;34776;48.180;16.420;2023-04-29T03:45:57;99513.69;;;12.61;100.00
48964;BME280;34776;48.180;16.420;2023-04-29T03:48:23;99511.47;;;12.67;100.00
48964;BME280;34776;48.180;16.420;2023-04-29T03:50:49;99516.41;;;12.73;100.00
48964;BME280;34776;48.180;16.420;2023-04-29T03:53:14;99515.25;;;12.77;100.00
48964;BME280;34776;48.180;16.420;2023-04-29T03:55:39;99509.53;;;12.84;100.00
48964;BME280;34776;48.180;16.420;2023-04-29T03:58:05;99517.31;;;12.87;100.00
48964;BME280;34776;48.180;16.420;2023-04-29T04:00:30;99517.22;;;12.88;100.00
48964;BME280;34776;48.180;16.420;2023-04-29T04:02:59;99522.63;;;12.87;100.00
48964;BME280;34776;48.180;16.420;2023-04-29T04:05:24;99524.38;;;12.88;100.00
48964;BME280;34776;48.180;16.420;2023-04-29T04:07:53;99519.78;;;12.90;100.00
48964;BME280;34776;48.180;16.420;2023-04-29T04:10:19;99523.22;;;12.92;100.00
48964;BME280;34776;48.180;16.420;2023-04-29T04:12:44;99516.59;;;12.97;100.00
48964;BME280;34776;48.180;16.420;2023-04-29T04:15:11;99517.25;;;13.01;100.00
48964;BME280;34776;48.180;16.420;2023-04-29T04:17:36;99509.81;;;13.06;100.00
48964;BME280;34776;48.180;16.420;2023-04-29T04:20:02;99514.19;;;13.07;100.00
48964;BME280;34776;48.180;16.420;2023-04-29T04:22:27;99522.00;;;13.10;100.00
48964;BME280;34776;48.180;16.420;2023-04-29T04:24:56;99517.59;;;13.09;100.00
48964;BME280;34776;48.180;16.420;2023-04-29T04:27:21;99516.94;;;13.06;100.00
48964;BME280;34776;48.180;16.420;2023-04-29T04:29:46;99520.91;;;13.00;100.00
48964;BME280;34776;48.180;16.420;2023-04-29T04:32:12;99528.31;;;12.95;100.00
48964;BME280;34776;48.180;16.420;2023-04-29T04:34:37;99526.06;;;12.89;100.00
48964;BME280;34776;48.180;16.420;2023-04-29T04:37:06;99519.78;;;12.90;100.00
48964;BME280;34776;48.180;16.420;2023-04-29T04:39:31;99524.06;;;12.92;100.00
48964;BME280;34776;48.180;16.420;2023-04-29T04:41:57;99524.16;;;12.91;100.00
48964;BME280;34776;48.180;16.420;2023-04-29T04:44:22;99524.16;;;12.91;100.00
48964;BME280;34776;48.180;16.420;2023-04-29T04:46:47;99518.81;;;12.91;100.00
48964;BME280;34776;48.180;16.420;2023-04-29T04:49:14;99524.91;;;12.93;100.00
48964;BME280;34776;48.180;16.420;2023-04-29T04:51:42;99516.72;;;12.96;100.00
48964;BME280;34776;48.180;16.420;2023-04-29T04:54:08;99519.16;;;12.99;100.00
48964;BME280;34776;48.180;16.420;2023-04-29T04:56:34;99526.97;;;13.02;100.00
48964;BME280;34776;48.180;16.420;2023-04-29T04:59:01;99518.44;;;13.10;100.00
48964;BME280;34776;48.180;16.420;2023-04-29T05:01:26;99521.03;;;13.11;100.00
48964;BME280;34776;48.180;16.420;2023-04-29T05:03:52;99521.25;;;13.08;100.00
48964;BME280;34776;48.180;16.420;2023-04-29T05:06:17;99524.66;;;13.10;100.00
48964;BME280;34776;48.180;16.420;2023-04-29T05:08:43;99521.25;;;13.08;100.00
48964;BME280;34776;48.180;16.420;2023-04-29T05:11:18;99521.66;;;13.02;100.00
48964;BME280;34776;48.180;16.420;2023-04-29T05:13:44;99523.56;;;13.00;100.00
48964;BME280;34776;48.180;16.420;2023-04-29T05:16:10;99528.13;;;12.98;100.00
48964;BME280;34776;48.180;16.420;2023-04-29T05:18:35;99527.56;;;12.93;100.00
48964;BME280;34776;48.180;16.420;2023-04-29T05:21:01;99526.50;;;12.95;100.00
48964;BME280;34776;48.180;16.420;2023-04-29T05:23:26;99529.75;;;13.00;100.00
48964;BME280;34776;48.180;16.420;2023-04-29T05:25:52;99529.44;;;13.05;100.00
48964;BME280;34776;48.180;16.420;2023-04-29T05:28:18;99524.50;;;12.99;100.00
48964;BME280;34776;48.180;16.420;2023-04-29T05:30:43;99532.91;;;12.93;100.00
48964;BME280;34776;48.180;16.420;2023-04-29T05:33:09;99529.94;;;12.97;100.00
48964;BME280;34776;48.180;16.420;2023-04-29T05:35:35;99531.28;;;13.17;100.00
48964;BME280;34776;48.180;16.420;2023-04-29T05:38:01;99536.59;;;13.32;100.00
48964;BME280;34776;48.180;16.420;2023-04-29T05:40:26;99538.44;;;13.44;100.00
48964;BME280;34776;48.180;16.420;2023-04-29T05:42:52;99533.63;;;13.49;100.00
48964;BME280;34776;48.180;16.420;2023-04-29T05:45:17;99538.22;;;13.47;100.00
48964;BME280;34776;48.180;16.420;2023-04-29T05:47:43;99541.22;;;13.55;100.00
48964;BME280;34776;48.180;16.420;2023-04-29T05:50:08;99547.84;;;13.63;100.00
48964;BME280;34776;48.180;16.420;2023-04-29T05:52:33;99539.41;;;13.69;100.00
48964;BME280;34776;48.180;16.420;2023-04-29T05:54:59;99542.09;;;13.81;100.00
48964;BME280;34776;48.180;16.420;2023-04-29T05:57:24;99548.50;;;13.92;100.00
48964;BME280;34776;48.180;16.420;2023-04-29T05:59:51;99540.81;;;14.13;100.00
48964;BME280;34776;48.180;16.420;2023-04-29T06:02:19;99547.66;;;14.17;100.00
48964;BME280;34776;48.180;16.420;2023-04-29T06:04:44;99544.84;;;14.31;100.00
48964;BME280;34776;48.180;16.420;2023-04-29T06:07:11;99549.78;;;14.37;100.00
48964;BME280;34776;48.180;16.420;2023-04-29T06:09:37;99554.28;;;14.37;100.00
48964;BME280;34776;48.180;16.420;2023-04-29T06:12:03;99558.09;;;14.46;100.00
48964;BME280;34776;48.180;16.420;2023-04-29T06:14:28;99556.28;;;14.59;100.00
48964;BME280;34776;48.180;16.420;2023-04-29T06:16:53;99555.94;;;14.76;100.00
48964;BME280;34776;48.180;16.420;2023-04-29T06:19:19;99558.72;;;14.75;100.00
48964;BME280;34776;48.180;16.420;2023-04-29T06:21:44;99555.25;;;14.86;100.00
48964;BME280;34776;48.180;16.420;2023-04-29T06:24:09;99562.22;;;15.12;99.54
48964;BME280;34776;48.180;16.420;2023-04-29T06:26:35;99554.16;;;15.36;97.68
48964;BME280;34776;48.180;16.420;2023-04-29T06:29:00;99555.34;;;15.56;96.19
48964;BME280;34776;48.180;16.420;2023-04-29T06:31:26;99549.47;;;15.87;94.26
48964;BME280;34776;48.180;16.420;2023-04-29T06:33:51;99549.63;;;16.53;91.75
48964;BME280;34776;48.180;16.420;2023-04-29T06:36:17;99562.09;;;17.09;88.10
48964;BME280;34776;48.180;16.420;2023-04-29T06:38:42;99548.97;;;17.91;87.15
48964;BME280;34776;48.180;16.420;2023-04-29T06:41:08;99539.44;;;19.96;82.38
48964;BME280;34776;48.180;16.420;2023-04-29T06:43:34;99542.19;;;20.24;75.94
48964;BME280;34776;48.180;16.420;2023-04-29T06:46:00;99544.00;;;19.57;77.33
48964;BME280;34776;48.180;16.420;2023-04-29T06:48:25;99549.41;;;19.08;77.76
48964;BME280;34776;48.180;16.420;2023-04-29T06:50:55;99546.44;;;18.61;79.31
48964;BME280;34776;48.180;16.420;2023-04-29T06:53:22;99568.97;;;18.29;79.93
48964;BME280;34776;48.180;16.420;2023-04-29T06:55:47;99566.63;;;18.15;80.72
48964;BME280;34776;48.180;16.420;2023-04-29T06:58:16;99565.00;;;18.02;81.59
48964;BME280;34776;48.180;16.420;2023-04-29T07:00:47;99559.06;;;18.39;81.74
48964;BME280;34776;48.180;16.420;2023-04-29T07:03:13;99562.25;;;18.85;79.60
48964;BME280;34776;48.180;16.420;2023-04-29T07:05:38;99557.00;;;18.83;78.63
48964;BME280;34776;48.180;16.420;2023-04-29T07:08:06;99554.53;;;19.50;77.97
48964;BME280;34776;48.180;16.420;2023-04-29T07:10:31;99546.44;;;21.55;75.17
48964;BME280;34776;48.180;16.420;2023-04-29T07:12:56;99542.53;;;24.52;65.59
48964;BME280;34776;48.180;16.420;2023-04-29T07:15:22;99533.06;;;26.33;59.37
48964;BME280;34776;48.180;16.420;2023-04-29T07:17:47;99530.38;;;28.07;56.57
48964;BME280;34776;48.180;16.420;2023-04-29T07:20:13;99534.59;;;30.27;51.39
48964;BME280;34776;48.180;16.420;2023-04-29T07:22:38;99537.44;;;29.06;52.09
48964;BME280;34776;48.180;16.420;2023-04-29T07:25:04;99540.81;;;30.88;50.56
48964;BME280;34776;48.180;16.420;2023-04-29T07:27:32;99525.81;;;32.73;45.08
48964;BME280;34776;48.180;16.420;2023-04-29T07:29:59;99535.16;;;32.53;43.55
48964;BME280;34776;48.180;16.420;2023-04-29T07:32:25;99537.19;;;30.29;43.59
48964;BME280;34776;48.180;16.420;2023-04-29T07:34:50;99546.13;;;28.68;46.22
48964;BME280;34776;48.180;16.420;2023-04-29T07:37:16;99534.03;;;29.79;44.60
48964;BME280;34776;48.180;16.420;2023-04-29T07:39:42;99545.41;;;31.71;42.04
48964;BME280;34776;48.180;16.420;2023-04-29T07:42:07;99536.31;;;34.68;37.44
48964;BME280;34776;48.180;16.420;2023-04-29T07:44:32;99548.38;;;33.72;35.60
48964;BME280;34776;48.180;16.420;2023-04-29T07:46:58;99541.19;;;30.33;38.98
48964;BME280;34776;48.180;16.420;2023-04-29T07:49:23;99551.59;;;28.05;42.49
48964;BME280;34776;48.180;16.420;2023-04-29T07:51:50;99558.00;;;26.60;44.97
48964;BME280;34776;48.180;16.420;2023-04-29T07:54:15;99563.41;;;25.31;46.86
48964;BME280;34776;48.180;16.420;2023-04-29T07:56:41;99567.81;;;24.45;48.48
48964;BME280;34776;48.180;16.420;2023-04-29T07:59:06;99560.88;;;24.50;48.93
48964;BME280;34776;48.180;16.420;2023-04-29T08:01:31;99559.41;;;24.79;47.81
48964;BME280;34776;48.180;16.420;2023-04-29T08:03:57;99560.22;;;24.40;47.76
48964;BME280;34776;48.180;16.420;2023-04-29T08:06:22;99553.03;;;23.83;49.04
48964;BME280;34776;48.180;16.420;2023-04-29T08:08:48;99554.91;;;24.95;49.02
48964;BME280;34776;48.180;16.420;2023-04-29T08:11:16;99550.22;;;27.87;41.92
48964;BME280;34776;48.180;16.420;2023-04-29T08:13:42;99541.63;;;28.19;40.39
48964;BME280;34776;48.180;16.420;2023-04-29T08:16:07;99547.13;;;31.33;36.86
48964;BME280;34776;48.180;16.420;2023-04-29T08:18:33;99557.91;;;33.16;33.12
48964;BME280;34776;48.180;16.420;2023-04-29T08:20:58;99551.06;;;30.21;35.38
48964;BME280;34776;48.180;16.420;2023-04-29T08:23:24;99568.50;;;28.85;38.29
48964;BME280;34776;48.180;16.420;2023-04-29T08:25:49;99556.25;;;27.83;39.33
48964;BME280;34776;48.180;16.420;2023-04-29T08:28:16;99552.25;;;26.69;40.03
48964;BME280;34776;48.180;16.420;2023-04-29T08:30:41;99558.13;;;25.99;42.08
48964;BME280;34776;48.180;16.420;2023-04-29T08:33:07;99552.72;;;27.67;39.88
48964;BME280;34776;48.180;16.420;2023-04-29T08:35:34;99549.56;;;29.51;36.65
48964;BME280;34776;48.180;16.420;2023-04-29T08:38:02;99553.38;;;27.69;37.64
48964;BME280;34776;48.180;16.420;2023-04-29T08:40:29;99564.06;;;25.56;41.44
48964;BME280;34776;48.180;16.420;2023-04-29T08:42:55;99564.63;;;24.33;44.22
48964;BME280;34776;48.180;16.420;2023-04-29T08:45:23;99562.78;;;23.43;46.00
48964;BME280;34776;48.180;16.420;2023-04-29T08:47:49;99563.41;;;22.62;47.15
48964;BME280;34776;48.180;16.420;2023-04-29T08:50:15;99558.19;;;21.90;48.38
48964;BME280;34776;48.180;16.420;2023-04-29T08:52:41;99562.81;;;21.72;49.25
48964;BME280;34776;48.180;16.420;2023-04-29T08:55:07;99554.38;;;21.75;50.07
48964;BME280;34776;48.180;16.420;2023-04-29T08:57:35;99554.47;;;22.35;49.70
48964;BME280;34776;48.180;16.420;2023-04-29T09:00:06;99547.63;;;21.79;50.10
48964;BME280;34776;48.180;16.420;2023-04-29T09:02:34;99560.72;;;21.29;51.52
48964;BME280;34776;48.180;16.420;2023-04-29T09:05:09;99559.44;;;21.06;52.63
48964;BME280;34776;48.180;16.420;2023-04-29T09:07:38;99557.31;;;20.82;52.99
48964;BME280;34776;48.180;16.420;2023-04-29T09:10:07;99556.69;;;20.33;54.51
48964;BME280;34776;48.180;16.420;2023-04-29T09:12:33;99549.66;;;20.02;55.59
48964;BME280;34776;48.180;16.420;2023-04-29T09:14:58;99545.72;;;19.67;57.12
48964;BME280;34776;48.180;16.420;2023-04-29T09:17:46;99568.81;;;19.02;61.17
48964;BME280;34776;48.180;16.420;2023-04-29T09:22:55;99587.19;;;17.62;70.72
48964;BME280;34776;48.180;16.420;2023-04-29T09:25:21;99586.38;;;17.18;75.77
48964;BME280;34776;48.180;16.420;2023-04-29T09:27:46;99602.41;;;16.86;78.62
48964;BME280;34776;48.180;16.420;2023-04-29T09:30:12;99606.69;;;16.55;81.32
48964;BME280;34776;48.180;16.420;2023-04-29T09:32:39;99595.94;;;16.32;83.71
48964;BME280;34776;48.180;16.420;2023-04-29T09:35:25;99589.84;;;16.41;87.28
48964;BME280;34776;48.180;16.420;2023-04-29T09:37:52;99587.91;;;16.66;88.72
48964;BME280;34776;48.180;16.420;2023-04-29T09:40:30;99584.47;;;16.75;90.11
48964;BME280;34776;48.180;16.420;2023-04-29T09:42:57;99583.25;;;17.02;91.47
48964;BME280;34776;48.180;16.420;2023-04-29T09:45:36;99581.59;;;17.54;92.12
48964;BME280;34776;48.180;16.420;2023-04-29T09:48:05;99578.03;;;17.86;91.26
48964;BME280;34776;48.180;16.420;2023-04-29T09:50:33;99574.00;;;17.80;90.57
48964;BME280;34776;48.180;16.420;2023-04-29T09:52:59;99596.28;;;17.50;88.53
48964;BME280;34776;48.180;16.420;2023-04-29T09:55:24;99598.00;;;17.08;89.39
48964;BME280;34776;48.180;16.420;2023-04-29T09:57:51;99600.84;;;16.83;90.94
48964;BME280;34776;48.180;16.420;2023-04-29T10:13:52;99587.13;;;18.16;94.88
48964;BME280;34776;48.180;16.420;2023-04-29T10:16:30;99590.63;;;18.99;92.71
48964;BME280;34776;48.180;16.420;2023-04-29T10:18:59;99585.72;;;19.62;87.62
48964;BME280;34776;48.180;16.420;2023-04-29T10:21:29;99580.34;;;20.01;85.04
48964;BME280;34776;48.180;16.420;2023-04-29T10:23:58;99580.78;;;20.44;84.61
48964;BME280;34776;48.180;16.420;2023-04-29T10:26:29;99577.13;;;21.18;82.65
48964;BME280;34776;48.180;16.420;2023-04-29T10:28:56;99568.22;;;21.72;80.80
48964;BME280;34776;48.180;16.420;2023-04-29T10:31:27;99563.09;;;21.86;77.42
48964;BME280;34776;48.180;16.420;2023-04-29T10:33:56;99555.47;;;21.82;77.49
48964;BME280;34776;48.180;16.420;2023-04-29T10:36:23;99559.50;;;21.42;75.26
48964;BME280;34776;48.180;16.420;2023-04-29T10:38:52;99555.56;;;20.91;76.77
48964;BME280;34776;48.180;16.420;2023-04-29T10:41:25;99546.38;;;20.83;76.55
48964;BME280;34776;48.180;16.420;2023-04-29T10:43:53;99542.38;;;20.87;77.86
48964;BME280;34776;48.180;16.420;2023-04-29T10:46:22;99539.16;;;21.20;77.35
48964;BME280;34776;48.180;16.420;2023-04-29T10:48:50;99529.28;;;21.28;76.43
48964;BME280;34776;48.180;16.420;2023-04-29T10:51:34;99537.22;;;21.12;74.64
48964;BME280;34776;48.180;16.420;2023-04-29T10:54:13;99523.09;;;21.18;76.59
48964;BME280;34776;48.180;16.420;2023-04-29T10:56:46;99526.88;;;21.07;77.16
48964;BME280;34776;48.180;16.420;2023-04-29T10:59:13;99525.94;;;20.99;76.99
48964;BME280;34776;48.180;16.420;2023-04-29T11:01:41;99526.38;;;20.76;75.95
48964;BME280;34776;48.180;16.420;2023-04-29T11:04:07;99521.25;;;20.45;75.22
48964;BME280;34776;48.180;16.420;2023-04-29T11:09:10;99510.94;;;19.84;76.17
48964;BME280;34776;48.180;16.420;2023-04-29T11:11:43;99509.41;;;19.72;77.08
48964;BME280;34776;48.180;16.420;2023-04-29T11:14:11;99497.47;;;19.84;76.72
48964;BME280;34776;48.180;16.420;2023-04-29T11:16:37;99499.19;;;19.85;75.64
48964;BME280;34776;48.180;16.420;2023-04-29T11:19:06;99501.31;;;19.81;75.01
48964;BME280;34776;48.180;16.420;2023-04-29T11:21:36;99502.25;;;20.10;75.24
48964;BME280;34776;48.180;16.420;2023-04-29T11:24:05;99511.69;;;20.51;74.47
48964;BME280;34776;48.180;16.420;2023-04-29T11:26:34;99508.56;;;21.01;72.12
48964;BME280;34776;48.180;16.420;2023-04-29T11:29:00;99494.56;;;21.78;70.97
48964;BME280;34776;48.180;16.420;2023-04-29T11:31:32;99492.44;;;21.89;67.60
48964;BME280;34776;48.180;16.420;2023-04-29T11:33:58;99495.06;;;21.55;68.17
48964;BME280;34776;48.180;16.420;2023-04-29T11:36:24;99498.19;;;21.42;67.81
48964;BME280;34776;48.180;16.420;2023-04-29T11:38:52;99497.47;;;21.22;67.46
48964;BME280;34776;48.180;16.420;2023-04-29T11:41:17;99494.28;;;20.73;67.27
48964;BME280;34776;48.180;16.420;2023-04-29T11:43:53;99505.63;;;20.12;68.63
48964;BME280;34776;48.180;16.420;2023-04-29T11:46:19;99499.31;;;19.93;69.82
48964;BME280;34776;48.180;16.420;2023-04-29T11:51:20;99495.00;;;20.38;69.50
48964;BME280;34776;48.180;16.420;2023-04-29T11:53:46;99484.97;;;21.03;67.01
48964;BME280;34776;48.180;16.420;2023-04-29T11:56:12;99486.34;;;21.25;65.14
48964;BME280;34776;48.180;16.420;2023-04-29T11:58:37;99482.41;;;21.38;63.91
48964;BME280;34776;48.180;16.420;2023-04-29T12:01:03;99483.41;;;21.37;63.40
48964;BME280;34776;48.180;16.420;2023-04-29T12:03:31;99488.91;;;21.45;63.06
48964;BME280;34776;48.180;16.420;2023-04-29T12:05:56;99493.91;;;21.40;62.58
48964;BME280;34776;48.180;16.420;2023-04-29T12:08:27;99492.75;;;21.24;62.55
48964;BME280;34776;48.180;16.420;2023-04-29T12:10:55;99502.00;;;21.04;63.12
48964;BME280;34776;48.180;16.420;2023-04-29T12:13:22;99496.50;;;20.78;63.56
48964;BME280;34776;48.180;16.420;2023-04-29T12:15:49;99491.66;;;20.54;64.24
48964;BME280;34776;48.180;16.420;2023-04-29T12:18:16;99495.03;;;20.28;64.77
48964;BME280;34776;48.180;16.420;2023-04-29T12:20:43;99505.69;;;19.92;65.97
48964;BME280;34776;48.180;16.420;2023-04-29T12:23:12;99496.06;;;19.60;67.10
48964;BME280;34776;48.180;16.420;2023-04-29T12:25:38;99498.09;;;19.39;68.22
48964;BME280;34776;48.180;16.420;2023-04-29T12:28:10;99506.31;;;19.27;68.46
48964;BME280;34776;48.180;16.420;2023-04-29T12:30:36;99502.22;;;19.23;68.09
48964;BME280;34776;48.180;16.420;2023-04-29T12:33:01;99505.72;;;19.04;68.80
48964;BME280;34776;48.180;16.420;2023-04-29T12:35:27;99502.59;;;18.90;69.42
48964;BME280;34776;48.180;16.420;2023-04-29T12:37:52;99504.44;;;18.79;69.79
48964;BME280;34776;48.180;16.420;2023-04-29T12:40:18;99508.59;;;18.53;70.72
48964;BME280;34776;48.180;16.420;2023-04-29T12:42:44;99512.91;;;18.34;71.42
48964;BME280;34776;48.180;16.420;2023-04-29T12:45:30;99511.06;;;18.25;72.25
48964;BME280;34776;48.180;16.420;2023-04-29T12:47:57;99512.56;;;18.18;72.47
48964;BME280;34776;48.180;16.420;2023-04-29T12:50:49;99519.53;;;17.99;74.03
48964;BME280;34776;48.180;16.420;2023-04-29T12:53:15;99527.97;;;17.85;74.58
48964;BME280;34776;48.180;16.420;2023-04-29T12:55:40;99541.03;;;17.57;75.94
48964;BME280;34776;48.180;16.420;2023-04-29T12:58:06;99543.63;;;17.27;78.48
48964;BME280;34776;48.180;16.420;2023-04-29T13:00:33;99544.97;;;16.89;80.78
48964;BME280;34776;48.180;16.420;2023-04-29T13:03:00;99532.03;;;16.71;82.92
48964;BME280;34776;48.180;16.420;2023-04-29T13:05:25;99538.88;;;16.64;83.73
48964;BME280;34776;48.180;16.420;2023-04-29T13:10:27;99504.63;;;16.68;86.87
48964;BME280;34776;48.180;16.420;2023-04-29T13:12:53;99510.03;;;17.00;89.26
48964;BME280;34776;48.180;16.420;2023-04-29T13:15:19;99506.78;;;17.17;88.97